createdAt,value
2019-05-12T00:01:28.748Z,66.30
2019-05-12T00:03:58.254Z,66.50
2019-05-12T00:06:28.377Z,66.97
2019-05-12T00:08:58.026Z,67.03
2019-05-12T00:11:28.694Z,66.97
2019-05-12T00:13:59.682Z,67.67
2019-05-12T00:16:29.271Z,68.11
2019-05-12T00:18:58.721Z,68.41
2019-05-12T00:21:28.435Z,67.95
2019-05-12T00:24:12.680Z,67.67
2019-05-12T00:26:42.536Z,67.66
2019-05-12T00:29:11.927Z,67.75
2019-05-12T00:31:40.917Z,68.04
2019-05-12T00:34:10.229Z,69.33
2019-05-12T00:36:39.073Z,68.53
2019-05-12T00:39:10.251Z,68.74
2019-05-12T00:41:39.379Z,69.16
2019-05-12T00:44:09.032Z,69.16
2019-05-12T00:46:38.684Z,68.59
2019-05-12T00:49:08.254Z,69.14
2019-05-12T00:51:38.591Z,69.14
2019-05-12T00:54:09.139Z,69.12
2019-05-12T00:56:39.310Z,68.69
2019-05-12T00:59:08.625Z,69.07
2019-05-12T01:01:38.180Z,68.75
2019-05-12T01:04:08.824Z,68.97
2019-05-12T01:06:38.860Z,69.63
2019-05-12T01:09:08.921Z,68.67
2019-05-12T01:11:38.432Z,69.41
2019-05-12T01:14:09.366Z,68.86
2019-05-12T01:16:38.858Z,68.89
2019-05-12T01:19:08.236Z,68.89
2019-05-12T01:21:38.311Z,69.09
2019-05-12T01:24:08.838Z,68.83
2019-05-12T01:26:38.916Z,69.11
2019-05-12T01:29:09.412Z,69.11
2019-05-12T01:31:44.967Z,69.16
2019-05-12T01:34:14.300Z,69.32
2019-05-12T01:36:43.226Z,69.22
2019-05-12T01:39:12.222Z,69.36
2019-05-12T01:41:41.230Z,69.47
2019-05-12T01:44:10.403Z,69.49
2019-05-12T01:46:39.584Z,70.15
2019-05-12T01:49:08.759Z,70.15
2019-05-12T01:51:38.503Z,69.97
2019-05-12T01:54:14.383Z,69.69
2019-05-12T01:56:38.688Z,69.31
2019-05-12T01:59:08.274Z,68.98
2019-05-12T02:01:38.894Z,68.93
2019-05-12T02:04:08.190Z,69.16
2019-05-12T02:06:38.602Z,69.14
2019-05-12T02:09:11.625Z,69.59
2019-05-12T02:11:40.734Z,69.33
2019-05-12T02:14:09.841Z,69.33
2019-05-12T02:16:38.981Z,69.49
2019-05-12T02:19:09.274Z,70.04
2019-05-12T02:21:38.518Z,69.28
2019-05-12T02:24:08.045Z,69.46
2019-05-12T02:26:38.500Z,68.83
2019-05-12T02:29:08.001Z,68.83
2019-05-12T02:31:39.880Z,68.79
2019-05-12T02:34:07.892Z,68.79
2019-05-12T02:36:37.101Z,68.80
2019-05-12T02:39:08.116Z,68.87
2019-05-12T02:41:37.626Z,68.54
2019-05-12T02:44:06.892Z,68.67
2019-05-12T02:46:35.981Z,69.23
2019-05-12T02:49:05.343Z,69.16
2019-05-12T02:51:35.469Z,68.83
2019-05-12T02:54:05.713Z,68.83
2019-05-12T02:56:36.553Z,68.60
2019-05-12T02:59:05.890Z,68.16
2019-05-12T03:01:36.608Z,68.11
2019-05-12T03:04:06.645Z,68.16
2019-05-12T03:06:36.255Z,67.79
2019-05-12T03:09:07.770Z,67.64
2019-05-12T03:11:37.951Z,67.64
2019-05-12T03:14:07.188Z,67.53
2019-05-12T03:16:37.713Z,67.19
2019-05-12T03:19:06.908Z,67.07
2019-05-12T03:21:36.079Z,66.62
2019-05-12T03:24:06.491Z,65.80
2019-05-12T03:26:35.959Z,65.63
2019-05-12T03:29:05.923Z,65.34
2019-05-12T03:31:39.867Z,65.43
2019-05-12T03:34:09.883Z,64.99
2019-05-12T03:36:41.862Z,64.60
2019-05-12T03:39:09.331Z,64.50
2019-05-12T03:41:38.361Z,64.41
2019-05-12T03:44:07.990Z,64.31
2019-05-12T03:46:37.664Z,64.66
2019-05-12T03:49:06.869Z,64.37
2019-05-12T03:51:35.973Z,64.07
2019-05-12T03:54:05.582Z,64.17
2019-05-12T03:56:35.310Z,63.75
2019-05-12T03:59:05.466Z,63.42
2019-05-12T04:01:36.539Z,62.89
2019-05-12T04:04:06.412Z,62.94
2019-05-12T04:06:35.553Z,62.93
2019-05-12T04:09:07.142Z,62.68
2019-05-12T04:11:36.245Z,62.59
2019-05-12T04:14:05.945Z,62.46
2019-05-12T04:16:36.557Z,62.21
2019-05-12T04:19:06.895Z,62.06
2019-05-12T04:21:36.597Z,61.94
2019-05-12T04:24:06.418Z,61.90
2019-05-12T04:26:36.743Z,62.11
2019-05-12T04:29:07.458Z,61.65
2019-05-12T04:31:37.403Z,61.60
2019-05-12T04:34:14.338Z,61.68
2019-05-12T04:36:41.009Z,61.65
2019-05-12T04:39:10.337Z,61.49
2019-05-12T04:41:39.612Z,61.17
2019-05-12T04:44:09.000Z,61.04
2019-05-12T04:46:38.469Z,61.33
2019-05-12T04:49:07.490Z,61.53
2019-05-12T04:51:36.768Z,61.10
2019-05-12T04:54:06.594Z,60.62
2019-05-12T04:56:36.375Z,60.66
2019-05-12T04:59:05.874Z,60.74
2019-05-12T05:01:35.266Z,60.83
2019-05-12T05:04:06.222Z,60.80
2019-05-12T05:06:36.279Z,60.60
2019-05-12T05:09:07.764Z,60.42
2019-05-12T05:11:36.871Z,60.37
2019-05-12T05:14:05.981Z,60.12
2019-05-12T05:16:35.509Z,60.22
2019-05-12T05:19:05.887Z,59.24
2019-05-12T05:21:34.775Z,59.57
2019-05-12T05:24:04.207Z,59.06
2019-05-12T05:26:36.689Z,58.93
2019-05-12T05:29:04.380Z,58.86
2019-05-12T05:31:33.866Z,58.91
2019-05-12T05:34:04.774Z,58.79
2019-05-12T05:36:34.782Z,58.96
2019-05-12T05:39:06.353Z,58.64
2019-05-12T05:41:40.221Z,58.67
2019-05-12T05:44:06.484Z,58.15
2019-05-12T05:46:39.037Z,58.01
2019-05-12T05:49:07.084Z,57.61
2019-05-12T05:51:39.508Z,57.65
2019-05-12T05:54:08.374Z,57.75
2019-05-12T05:56:42.710Z,57.26
2019-05-12T05:59:08.516Z,57.30
2019-05-12T06:01:40.054Z,57.18
2019-05-12T06:04:08.875Z,57.29
2019-05-12T06:06:44.370Z,56.77
2019-05-12T06:09:10.345Z,56.25
2019-05-12T06:11:39.557Z,55.72
2019-05-12T06:14:14.083Z,55.74
2019-05-12T06:16:40.547Z,55.17
2019-05-12T06:19:13.912Z,55.47
2019-05-12T06:21:44.043Z,55.39
2019-05-12T06:24:15.665Z,55.55
2019-05-12T06:26:56.664Z,54.59
2019-05-12T06:29:20.375Z,54.50
2019-05-12T06:31:47.855Z,53.54
2019-05-12T06:34:20.797Z,52.33
2019-05-12T06:36:48.042Z,51.45
2019-05-12T06:39:20.537Z,50.92
2019-05-12T06:41:48.210Z,51.17
2019-05-12T06:44:19.588Z,51.23
2019-05-12T06:46:53.570Z,51.32
2019-05-12T06:49:20.075Z,51.12
2019-05-12T06:51:53.691Z,50.51
2019-05-12T06:54:20.563Z,50.88
2019-05-12T06:56:54.920Z,49.92
2019-05-12T06:59:23.605Z,48.43
2019-05-12T07:01:58.714Z,47.84
2019-05-12T07:04:24.080Z,47.71
2019-05-12T07:06:56.180Z,47.66
2019-05-12T07:09:28.743Z,47.55
2019-05-12T07:12:03.024Z,47.18
2019-05-12T07:14:27.391Z,47.50
2019-05-12T07:17:02.838Z,47.34
2019-05-12T07:19:30.135Z,47.37
2019-05-12T07:22:00.159Z,48.06
2019-05-12T07:24:29.147Z,47.34
2019-05-12T07:27:06.828Z,46.43
2019-05-12T07:29:34.387Z,46.26
2019-05-12T07:32:07.136Z,44.79
2019-05-12T07:34:35.742Z,43.96
2019-05-12T07:37:05.555Z,44.07
2019-05-12T07:39:37.025Z,44.32
2019-05-12T07:42:07.277Z,44.77
2019-05-12T07:44:40.015Z,44.74
2019-05-12T07:47:13.765Z,44.47
2019-05-12T07:49:44.225Z,44.37
2019-05-12T07:52:13.861Z,44.30
2019-05-12T07:54:44.451Z,44.22
2019-05-12T07:57:17.450Z,42.95
2019-05-12T07:59:45.791Z,42.50
2019-05-12T08:02:15.018Z,42.86
2019-05-12T08:04:44.149Z,43.10
2019-05-12T08:07:14.530Z,43.05
2019-05-12T08:09:44.075Z,42.44
2019-05-12T08:12:16.309Z,41.73
2019-05-12T08:14:44.266Z,41.41
2019-05-12T08:17:19.276Z,41.60
2019-05-12T08:19:44.626Z,41.99
2019-05-12T08:22:13.716Z,43.63
2019-05-12T08:24:47.632Z,43.89
2019-05-12T08:27:14.410Z,43.31
2019-05-12T08:29:44.206Z,43.78
2019-05-12T08:32:16.050Z,42.92
2019-05-12T08:34:44.923Z,42.54
2019-05-12T08:37:14.496Z,42.85
2019-05-12T08:39:44.278Z,42.95
2019-05-12T08:42:14.555Z,42.24
2019-05-12T08:44:44.093Z,41.75
2019-05-12T08:47:15.216Z,42.41
2019-05-12T08:49:52.991Z,41.58
2019-05-12T08:52:16.412Z,41.08
2019-05-12T08:54:49.389Z,40.42
2019-05-12T08:57:17.684Z,40.02
2019-05-12T08:59:47.075Z,39.76
2019-05-12T09:02:16.414Z,39.65
2019-05-12T09:04:51.334Z,40.45
2019-05-12T09:07:16.856Z,38.13
2019-05-12T09:09:46.323Z,37.32
2019-05-12T09:12:15.332Z,37.62
2019-05-12T09:14:46.137Z,37.19
2019-05-12T09:17:15.588Z,36.63
2019-05-12T09:19:44.730Z,36.54
2019-05-12T09:22:18.538Z,35.73
2019-05-12T09:24:45.330Z,35.48
2019-05-12T09:27:14.685Z,35.61
2019-05-12T09:29:46.376Z,35.40
2019-05-12T09:32:15.636Z,34.81
2019-05-12T09:34:52.741Z,35.12
2019-05-12T09:37:15.987Z,34.88
2019-05-12T09:39:47.295Z,35.00
2019-05-12T09:42:19.330Z,34.94
2019-05-12T09:44:48.470Z,34.77
2019-05-12T09:47:23.015Z,34.68
2019-05-12T09:49:50.199Z,34.71
2019-05-12T09:52:27.004Z,35.05
2019-05-12T09:54:50.335Z,34.89
2019-05-12T09:57:19.450Z,34.26
2019-05-12T09:59:55.467Z,34.19
2019-05-12T10:02:21.006Z,33.70
2019-05-12T10:04:57.898Z,33.73
2019-05-12T10:07:21.200Z,33.68
2019-05-12T10:09:55.031Z,33.85
2019-05-12T10:12:23.115Z,33.56
2019-05-12T10:14:54.871Z,33.36
2019-05-12T10:17:26.325Z,32.60
2019-05-12T10:19:58.162Z,32.49
2019-05-12T10:22:39.992Z,32.58
2019-05-12T10:25:10.821Z,32.75
2019-05-12T10:27:41.172Z,32.83
2019-05-12T10:30:16.406Z,32.88
2019-05-12T10:32:46.226Z,33.38
2019-05-12T10:35:21.359Z,33.36
2019-05-12T10:37:47.517Z,34.05
2019-05-12T10:40:17.519Z,33.62
2019-05-12T10:42:49.546Z,33.77
2019-05-12T10:45:20.731Z,33.97
2019-05-12T10:47:50.343Z,34.08
2019-05-12T10:50:19.889Z,33.92
2019-05-12T10:52:48.880Z,34.84
2019-05-12T10:55:18.028Z,34.76
2019-05-12T10:57:52.217Z,34.34
2019-05-12T11:00:24.539Z,34.42
2019-05-12T11:02:50.658Z,33.82
2019-05-12T11:05:22.967Z,34.23
2019-05-12T11:07:50.756Z,34.15
2019-05-12T11:10:20.291Z,34.20
2019-05-12T11:12:49.778Z,34.66
2019-05-12T11:15:20.299Z,34.25
2019-05-12T11:18:30.491Z,34.51
2019-05-12T11:20:57.444Z,34.52
2019-05-12T11:23:26.373Z,34.14
2019-05-12T11:25:55.560Z,34.64
2019-05-12T11:28:25.622Z,34.77
2019-05-12T11:30:55.154Z,34.63
2019-05-12T11:33:24.775Z,34.59
2019-05-12T11:35:54.469Z,34.64
2019-05-12T11:38:24.475Z,35.22
2019-05-12T11:40:53.930Z,35.52
2019-05-12T11:43:29.903Z,35.70
2019-05-12T11:46:00.148Z,35.26
2019-05-12T11:48:30.810Z,35.10
2019-05-12T11:51:03.900Z,34.54
2019-05-12T11:53:36.716Z,34.18
2019-05-12T11:56:09.238Z,33.76
2019-05-12T11:58:46.207Z,33.34
2019-05-12T12:01:14.877Z,32.67
2019-05-12T12:03:45.728Z,32.53
2019-05-12T12:06:17.423Z,31.13
2019-05-12T12:08:48.033Z,28.42
2019-05-12T12:11:24.502Z,26.00
2019-05-12T12:13:53.432Z,23.86
2019-05-12T12:16:23.765Z,23.67
2019-05-12T12:19:02.366Z,23.57
2019-05-12T12:21:25.736Z,22.99
2019-05-12T12:23:55.582Z,20.93
2019-05-12T12:26:30.416Z,20.21
2019-05-12T12:28:59.889Z,20.80
2019-05-12T12:31:35.585Z,20.85
2019-05-12T12:34:02.291Z,21.53
2019-05-12T12:36:34.053Z,22.66
2019-05-12T12:39:04.175Z,23.12
2019-05-12T12:41:34.187Z,23.32
2019-05-12T12:44:04.603Z,24.01
2019-05-12T12:49:13.933Z,25.39
2019-05-12T12:51:45.552Z,26.83
2019-05-12T12:54:15.986Z,27.40
2019-05-12T12:56:45.439Z,28.54
2019-05-12T12:59:14.630Z,29.55
2019-05-12T13:01:44.292Z,30.00
2019-05-12T13:04:13.458Z,30.37
2019-05-12T13:06:43.748Z,31.02
2019-05-12T13:09:22.578Z,32.00
2019-05-12T13:11:44.557Z,32.56
2019-05-12T13:14:13.821Z,33.52
2019-05-12T13:16:43.665Z,33.87
2019-05-12T13:19:17.043Z,33.89
2019-05-12T13:21:45.558Z,34.18
2019-05-12T13:24:14.899Z,34.71
2019-05-12T13:26:44.212Z,34.61
2019-05-12T13:29:13.539Z,35.03
2019-05-12T13:31:46.958Z,35.33
2019-05-12T13:34:14.398Z,34.91
2019-05-12T13:36:44.270Z,34.92
2019-05-12T13:39:16.305Z,34.71
2019-05-12T13:41:44.916Z,35.00
2019-05-12T13:44:14.272Z,35.12
2019-05-12T13:46:48.546Z,35.30
2019-05-12T13:49:14.294Z,35.58
2019-05-12T13:51:48.512Z,35.88
2019-05-12T13:54:14.615Z,36.07
2019-05-12T13:56:44.449Z,35.99
2019-05-12T13:59:20.550Z,35.43
2019-05-12T14:01:45.779Z,34.51
2019-05-12T14:04:15.987Z,34.15
2019-05-12T14:06:45.635Z,34.39
2019-05-12T14:09:15.104Z,34.17
2019-05-12T14:11:45.449Z,34.29
2019-05-12T14:14:15.682Z,34.28
2019-05-12T14:16:53.606Z,34.21
2019-05-12T14:19:16.783Z,34.15
2019-05-12T14:21:46.040Z,33.89
2019-05-12T14:24:15.489Z,34.01
2019-05-12T14:26:48.054Z,34.11
2019-05-12T14:29:20.465Z,34.28
2019-05-12T14:31:55.010Z,33.92
2019-05-12T14:34:20.858Z,33.92
2019-05-12T14:36:48.123Z,33.86
2019-05-12T14:39:17.691Z,33.15
2019-05-12T14:41:52.994Z,33.21
2019-05-12T14:44:17.622Z,33.02
2019-05-12T14:46:50.483Z,32.54
2019-05-12T14:49:20.188Z,32.61
2019-05-12T14:51:50.578Z,32.91
2019-05-12T14:54:19.759Z,33.17
2019-05-12T14:56:53.688Z,33.80
2019-05-12T14:59:24.290Z,33.39
2019-05-12T15:01:58.960Z,33.36
2019-05-12T15:04:27.940Z,33.54
2019-05-12T15:06:59.633Z,33.33
2019-05-12T15:09:29.423Z,32.78
2019-05-12T15:11:58.362Z,31.57
2019-05-12T15:14:32.628Z,30.79
2019-05-12T15:16:58.852Z,30.18
2019-05-12T15:19:29.801Z,30.63
2019-05-12T15:22:01.596Z,31.24
2019-05-12T15:24:33.550Z,31.71
2019-05-12T15:27:03.846Z,32.25
2019-05-12T15:29:33.919Z,33.07
2019-05-12T15:32:04.133Z,33.20
2019-05-12T15:34:33.858Z,34.06
2019-05-12T15:37:04.144Z,34.65
2019-05-12T15:39:33.706Z,35.05
2019-05-12T15:42:03.519Z,35.12
2019-05-12T15:44:36.778Z,35.70
2019-05-12T15:47:05.436Z,36.46
2019-05-12T15:49:34.588Z,36.09
2019-05-12T15:52:03.856Z,36.28
2019-05-12T15:54:35.799Z,36.45
2019-05-12T15:57:04.385Z,36.39
2019-05-12T15:59:34.526Z,36.54
2019-05-12T16:02:12.379Z,36.68
2019-05-12T16:04:42.870Z,37.20
2019-05-12T16:07:07.122Z,36.94
2019-05-12T16:09:36.387Z,37.08
2019-05-12T16:12:18.669Z,37.64
2019-05-12T16:14:40.919Z,37.24
2019-05-12T16:17:07.248Z,37.34
2019-05-12T16:19:37.163Z,37.72
2019-05-12T16:22:06.370Z,38.03
2019-05-12T16:24:35.622Z,38.36
2019-05-12T16:27:04.720Z,38.54
2019-05-12T16:29:34.240Z,38.76
2019-05-12T16:32:06.389Z,38.86
2019-05-12T16:34:44.134Z,38.96
2019-05-12T16:37:06.987Z,39.76
2019-05-12T16:39:43.844Z,39.56
2019-05-12T16:42:10.450Z,39.26
2019-05-12T16:44:38.321Z,39.37
2019-05-12T16:47:23.875Z,39.58
2019-05-12T16:49:49.463Z,39.57
2019-05-12T16:52:18.875Z,40.34
2019-05-12T16:54:48.023Z,40.59
2019-05-12T16:57:18.249Z,40.52
2019-05-12T16:59:55.954Z,40.79
2019-05-12T17:02:18.486Z,40.60
2019-05-12T17:04:47.664Z,41.19
2019-05-12T17:07:20.848Z,40.78
2019-05-12T17:09:48.710Z,41.02
2019-05-12T17:12:23.949Z,41.07
2019-05-12T17:14:53.302Z,41.03
2019-05-12T17:17:24.646Z,41.00
2019-05-12T17:19:57.174Z,41.19
2019-05-12T17:22:26.659Z,41.40
2019-05-12T17:24:55.852Z,41.21
2019-05-12T17:27:27.439Z,41.58
2019-05-12T17:29:56.922Z,41.49
2019-05-12T17:32:26.038Z,41.62
2019-05-12T17:34:55.360Z,41.72
2019-05-12T17:37:24.722Z,41.97
2019-05-12T17:39:53.889Z,42.12
2019-05-12T17:42:26.704Z,42.46
2019-05-12T17:44:54.524Z,41.98
2019-05-12T17:47:26.390Z,41.88
2019-05-12T17:50:00.540Z,42.06
2019-05-12T17:52:26.847Z,42.07
2019-05-12T17:55:04.562Z,42.30
2019-05-12T17:57:26.934Z,42.47
2019-05-12T17:59:59.763Z,42.67
2019-05-12T18:02:26.965Z,42.65
2019-05-12T18:05:01.253Z,42.82
2019-05-12T18:07:27.686Z,42.83
2019-05-12T18:10:00.592Z,42.87
2019-05-12T18:12:38.270Z,43.34
2019-05-12T18:14:58.320Z,43.15
2019-05-12T18:17:27.337Z,43.37
2019-05-12T18:20:00.758Z,43.15
2019-05-12T18:22:27.480Z,43.18
2019-05-12T18:24:56.509Z,43.58
2019-05-12T18:27:25.906Z,43.33
2019-05-12T18:29:55.594Z,43.56
2019-05-12T18:32:24.812Z,43.39
2019-05-12T18:34:59.462Z,43.80
2019-05-12T18:37:27.282Z,44.17
2019-05-12T18:39:56.422Z,44.16
2019-05-12T18:42:25.576Z,44.28
2019-05-12T18:44:55.904Z,44.51
2019-05-12T18:47:31.800Z,44.81
2019-05-12T18:49:59.716Z,44.84
2019-05-12T18:52:34.578Z,44.69
2019-05-12T18:55:01.015Z,44.98
2019-05-12T18:57:30.464Z,44.88
2019-05-12T19:00:04.243Z,45.00
2019-05-12T19:02:30.526Z,44.71
2019-05-12T19:04:59.929Z,45.14
2019-05-12T19:07:39.318Z,45.14
2019-05-12T19:10:06.555Z,45.19
2019-05-12T19:12:35.929Z,45.61
2019-05-12T19:15:10.268Z,45.36
2019-05-12T19:17:38.256Z,45.35
2019-05-12T19:20:08.583Z,45.85
2019-05-12T19:22:39.273Z,45.65
2019-05-12T19:25:09.568Z,45.63
2019-05-12T19:27:38.691Z,45.64
2019-05-12T19:30:08.552Z,45.77
2019-05-12T19:32:37.661Z,46.16
2019-05-12T19:35:09.535Z,45.73
2019-05-12T19:37:37.674Z,45.77
2019-05-12T19:40:11.971Z,45.78
2019-05-12T19:42:37.649Z,45.99
2019-05-12T19:45:19.353Z,45.94
2019-05-12T19:47:38.544Z,46.11
2019-05-12T19:50:11.964Z,46.19
2019-05-12T19:52:39.576Z,46.16
2019-05-12T19:55:09.020Z,46.53
2019-05-12T19:57:38.356Z,46.42
2019-05-12T20:00:08.228Z,46.34
2019-05-12T20:02:37.532Z,46.54
2019-05-12T20:05:08.554Z,46.42
2019-05-12T20:07:37.826Z,46.58
2019-05-12T20:10:07.593Z,46.75
2019-05-12T20:12:37.328Z,46.53
2019-05-12T20:15:07.105Z,46.72
2019-05-12T20:17:36.140Z,47.04
2019-05-12T20:20:05.474Z,46.98
2019-05-12T20:22:34.596Z,47.25
2019-05-12T20:25:04.396Z,47.29
2019-05-12T20:27:35.143Z,47.60
2019-05-12T20:30:07.217Z,47.89
2019-05-12T20:32:36.094Z,48.07
2019-05-12T20:35:06.066Z,48.60
2019-05-12T20:37:35.674Z,48.84
2019-05-12T20:40:06.708Z,48.98
2019-05-12T20:42:42.236Z,49.66
2019-05-12T20:45:08.847Z,49.92
2019-05-12T20:47:38.999Z,50.20
2019-05-12T20:50:09.730Z,50.60
2019-05-12T20:52:45.053Z,50.90
2019-05-12T20:55:10.576Z,51.14
2019-05-12T20:57:49.400Z,51.53
2019-05-12T21:00:10.554Z,51.79
2019-05-12T21:02:40.282Z,51.83
2019-05-12T21:05:16.749Z,52.22
2019-05-12T21:07:40.545Z,52.19
2019-05-12T21:10:09.710Z,52.46
2019-05-12T21:12:46.392Z,52.95
2019-05-12T21:15:17.342Z,52.99
2019-05-12T21:17:52.082Z,53.25
2019-05-12T21:20:17.146Z,53.66
2019-05-12T21:22:46.964Z,53.78
2019-05-12T21:25:16.658Z,54.35
2019-05-12T21:27:47.748Z,54.16
2019-05-12T21:30:19.573Z,54.24
2019-05-12T21:32:59.064Z,54.50
2019-05-12T21:35:22.633Z,54.79
2019-05-12T21:37:51.151Z,54.86
2019-05-12T21:40:22.321Z,54.99
2019-05-12T21:42:53.575Z,55.14
2019-05-12T21:45:26.599Z,55.41
2019-05-12T21:47:56.317Z,55.37
2019-05-12T21:50:32.507Z,55.39
2019-05-12T21:52:59.584Z,55.55
2019-05-12T21:55:29.071Z,55.58
2019-05-12T21:58:01.551Z,55.66
2019-05-12T22:00:36.071Z,55.79
2019-05-12T22:03:12.403Z,56.30
2019-05-12T22:05:50.360Z,57.86
2019-05-12T22:08:17.563Z,58.78
2019-05-12T22:10:43.531Z,58.38
2019-05-12T22:13:17.076Z,59.87
2019-05-12T22:15:43.517Z,59.75
2019-05-12T22:18:12.680Z,59.69
2019-05-12T22:20:46.114Z,60.08
2019-05-12T22:23:15.019Z,61.20
2019-05-12T22:25:49.037Z,62.71
2019-05-12T22:28:14.678Z,64.18
2019-05-12T22:30:44.006Z,63.16
2019-05-12T22:33:13.965Z,63.99
2019-05-12T22:35:44.275Z,64.32
2019-05-12T22:38:19.031Z,65.42
2019-05-12T22:40:49.341Z,65.29
2019-05-12T22:43:18.395Z,65.37
2019-05-12T22:45:49.446Z,64.06
2019-05-12T22:48:18.724Z,65.40
2019-05-12T22:50:47.722Z,65.68
2019-05-12T22:53:19.328Z,66.25
2019-05-12T22:55:48.651Z,66.68
2019-05-12T22:58:22.324Z,67.39
2019-05-12T23:00:51.095Z,67.29
2019-05-12T23:03:19.741Z,67.36
2019-05-12T23:05:50.864Z,68.00
2019-05-12T23:08:19.890Z,68.86
2019-05-12T23:10:51.765Z,69.81
2019-05-12T23:13:23.283Z,70.68
2019-05-12T23:15:52.108Z,71.59
2019-05-12T23:18:28.774Z,72.96
2019-05-12T23:20:54.109Z,72.22
2019-05-12T23:23:24.349Z,73.94
2019-05-12T23:26:00.167Z,75.58
2019-05-12T23:28:25.578Z,76.24
2019-05-12T23:30:54.481Z,75.91
2019-05-12T23:33:31.565Z,76.34
2019-05-12T23:35:54.687Z,77.47
2019-05-12T23:38:24.586Z,77.97
2019-05-12T23:40:55.006Z,77.92
2019-05-12T23:43:24.114Z,77.30
2019-05-12T23:45:53.463Z,77.48
2019-05-12T23:48:23.186Z,76.27
2019-05-12T23:50:54.276Z,75.58
2019-05-12T23:53:24.362Z,75.50
2019-05-12T23:55:54.526Z,75.83
2019-05-12T23:58:25.154Z,75.69
